createdAt,value
2018-01-06T00:01:29.510Z,69.10
2018-01-06T00:03:55.985Z,69.10
2018-01-06T00:06:23.196Z,68.50
2018-01-06T00:08:49.600Z,68.50
2018-01-06T00:11:16.073Z,68.40
2018-01-06T00:13:42.504Z,68.10
2018-01-06T00:16:08.916Z,67.60
2018-01-06T00:18:35.352Z,67.60
2018-01-06T00:21:01.783Z,68.10
2018-01-06T00:23:28.513Z,68.00
2018-01-06T00:25:54.926Z,67.60
2018-01-06T00:28:21.341Z,68.10
2018-01-06T00:30:47.780Z,68.20
2018-01-06T00:33:14.221Z,68.20
2018-01-06T00:35:40.992Z,68.40
2018-01-06T00:38:07.405Z,69.00
2018-01-06T00:40:33.832Z,68.80
2018-01-06T00:43:00.417Z,68.70
2018-01-06T00:45:26.864Z,68.20
2018-01-06T00:47:53.332Z,67.90
2018-01-06T00:50:19.776Z,68.20
2018-01-06T00:52:46.228Z,68.20
2018-01-06T00:55:12.666Z,68.70
2018-01-06T00:57:39.845Z,69.30
2018-01-06T01:00:06.276Z,69.30
2018-01-06T01:02:33.697Z,69.00
2018-01-06T01:05:00.105Z,69.00
2018-01-06T01:07:26.528Z,69.20
2018-01-06T01:09:52.950Z,69.20
2018-01-06T01:12:19.408Z,69.20
2018-01-06T01:14:45.897Z,69.20
2018-01-06T01:17:13.084Z,69.50
2018-01-06T01:19:39.529Z,68.70
2018-01-06T01:22:05.957Z,68.50
2018-01-06T01:24:32.418Z,68.80
2018-01-06T01:26:58.843Z,68.70
2018-01-06T01:29:25.258Z,68.80
2018-01-06T01:31:51.801Z,69.10
2018-01-06T01:34:18.240Z,69.40
2018-01-06T01:36:44.722Z,69.20
2018-01-06T01:39:11.177Z,69.50
2018-01-06T01:41:38.439Z,68.80
2018-01-06T01:44:04.861Z,68.70
2018-01-06T01:46:31.316Z,69.00
2018-01-06T01:48:57.959Z,68.70
2018-01-06T01:51:24.385Z,68.50
2018-01-06T01:53:50.836Z,68.30
2018-01-06T01:56:17.292Z,68.30
2018-01-06T01:58:44.844Z,68.30
2018-01-06T02:01:11.284Z,68.30
2018-01-06T02:03:37.696Z,68.50
2018-01-06T02:06:04.140Z,68.90
2018-01-06T02:08:30.572Z,68.90
2018-01-06T02:10:57.042Z,68.90
2018-01-06T02:13:24.257Z,69.90
2018-01-06T02:15:50.740Z,69.80
2018-01-06T02:18:17.905Z,69.50
2018-01-06T02:20:44.300Z,69.50
2018-01-06T02:23:11.481Z,69.30
2018-01-06T02:25:37.933Z,69.30
2018-01-06T02:28:04.343Z,69.00
2018-01-06T02:30:31.473Z,68.70
2018-01-06T02:32:58.654Z,68.80
2018-01-06T02:35:25.113Z,68.80
2018-01-06T02:37:51.565Z,69.10
2018-01-06T02:40:17.972Z,69.30
2018-01-06T02:42:44.504Z,69.40
2018-01-06T02:45:10.972Z,69.80
2018-01-06T02:47:37.382Z,69.80
2018-01-06T02:50:03.851Z,70.00
2018-01-06T02:52:30.986Z,70.40
2018-01-06T02:54:58.180Z,70.30
2018-01-06T02:57:24.609Z,70.30
2018-01-06T02:59:51.036Z,69.60
2018-01-06T03:02:17.476Z,68.90
2018-01-06T03:04:43.903Z,69.20
2018-01-06T03:07:11.071Z,69.80
2018-01-06T03:09:37.509Z,69.80
2018-01-06T03:12:03.964Z,69.70
2018-01-06T03:14:30.384Z,69.30
2018-01-06T03:16:57.575Z,68.80
2018-01-06T03:19:23.996Z,69.20
2018-01-06T03:21:50.422Z,68.20
2018-01-06T03:24:16.865Z,68.10
2018-01-06T03:26:44.077Z,67.70
2018-01-06T03:29:10.481Z,67.70
2018-01-06T03:31:36.973Z,67.60
2018-01-06T03:34:03.385Z,67.60
2018-01-06T03:36:30.608Z,67.50
2018-01-06T03:38:57.740Z,67.60
2018-01-06T03:41:24.200Z,67.60
2018-01-06T03:43:50.618Z,68.10
2018-01-06T03:46:17.792Z,68.20
2018-01-06T03:48:44.529Z,68.20
2018-01-06T03:51:10.948Z,68.10
2018-01-06T03:53:37.364Z,67.90
2018-01-06T03:56:03.844Z,68.10
2018-01-06T03:58:30.249Z,68.20
2018-01-06T04:00:57.401Z,67.80
2018-01-06T04:03:23.835Z,67.80
2018-01-06T04:05:50.541Z,67.90
2018-01-06T04:08:17.685Z,68.20
2018-01-06T04:10:45.664Z,68.40
2018-01-06T04:13:12.832Z,68.60
2018-01-06T04:15:39.276Z,68.50
2018-01-06T04:18:05.718Z,68.50
2018-01-06T04:20:32.120Z,67.80
2018-01-06T04:22:58.573Z,67.60
2018-01-06T04:25:24.982Z,68.20
2018-01-06T04:27:51.409Z,67.10
2018-01-06T04:30:17.837Z,67.30
2018-01-06T04:32:44.241Z,67.50
2018-01-06T04:35:10.664Z,67.90
2018-01-06T04:37:37.102Z,68.10
2018-01-06T04:40:03.510Z,68.50
2018-01-06T04:42:29.933Z,68.90
2018-01-06T04:44:56.354Z,68.90
2018-01-06T04:47:22.786Z,68.70
2018-01-06T04:49:49.457Z,68.70
2018-01-06T04:52:16.088Z,68.80
2018-01-06T04:54:42.545Z,68.70
2018-01-06T04:57:08.972Z,68.80
2018-01-06T04:59:35.384Z,68.90
2018-01-06T05:02:01.833Z,68.50
2018-01-06T05:04:28.260Z,68.80
2018-01-06T05:06:54.672Z,68.70
2018-01-06T05:09:21.076Z,68.70
2018-01-06T05:11:48.253Z,68.50
2018-01-06T05:14:14.648Z,68.40
2018-01-06T05:16:41.840Z,68.20
2018-01-06T05:19:08.240Z,68.10
2018-01-06T05:21:35.388Z,68.70
2018-01-06T05:24:02.594Z,68.40
2018-01-06T05:26:29.004Z,68.30
2018-01-06T05:28:55.401Z,68.10
2018-01-06T05:31:21.815Z,68.50
2018-01-06T05:33:48.999Z,68.90
2018-01-06T05:36:15.429Z,68.90
2018-01-06T05:38:42.596Z,69.50
2018-01-06T05:41:09.000Z,69.50
2018-01-06T05:43:35.452Z,69.50
2018-01-06T05:46:01.868Z,69.00
2018-01-06T05:48:29.033Z,68.60
2018-01-06T05:50:56.209Z,68.20
2018-01-06T05:53:22.600Z,68.20
2018-01-06T05:55:49.749Z,68.40
2018-01-06T05:58:16.201Z,68.40
2018-01-06T06:00:42.724Z,68.90
2018-01-06T06:03:09.860Z,69.70
2018-01-06T06:05:36.320Z,69.70
2018-01-06T06:08:02.772Z,70.00
2018-01-06T06:10:29.193Z,70.30
2018-01-06T06:12:55.621Z,70.10
2018-01-06T06:15:22.163Z,69.90
2018-01-06T06:17:48.597Z,69.30
2018-01-06T06:20:15.005Z,68.70
2018-01-06T06:22:42.165Z,68.50
2018-01-06T06:25:09.281Z,68.50
2018-01-06T06:27:35.689Z,68.50
2018-01-06T06:30:02.861Z,69.50
2018-01-06T06:32:29.296Z,68.60
2018-01-06T06:34:56.449Z,68.40
2018-01-06T06:37:22.886Z,68.30
2018-01-06T06:39:49.377Z,68.90
2018-01-06T06:42:15.816Z,69.40
2018-01-06T06:44:42.248Z,69.00
2018-01-06T06:47:08.648Z,68.70
2018-01-06T06:49:35.081Z,68.70
2018-01-06T06:52:01.506Z,69.00
2018-01-06T06:54:27.942Z,69.00
2018-01-06T06:56:54.362Z,68.90
2018-01-06T06:59:20.861Z,69.10
2018-01-06T07:01:47.336Z,69.20
2018-01-06T07:04:13.757Z,70.00
2018-01-06T07:06:40.942Z,70.40
2018-01-06T07:09:07.349Z,69.60
2018-01-06T07:11:34.487Z,69.50
2018-01-06T07:14:01.679Z,69.60
2018-01-06T07:16:28.156Z,69.60
2018-01-06T07:18:54.584Z,69.80
2018-01-06T07:21:22.157Z,69.80
2018-01-06T07:23:48.585Z,69.80
2018-01-06T07:26:14.966Z,69.80
2018-01-06T07:28:41.398Z,70.90
2018-01-06T07:31:07.790Z,71.80
2018-01-06T07:33:34.208Z,70.80
2018-01-06T07:36:00.622Z,71.20
2018-01-06T07:38:27.029Z,71.00
2018-01-06T07:40:53.456Z,70.90
2018-01-06T07:43:19.864Z,70.70
2018-01-06T07:45:47.044Z,70.50
2018-01-06T07:48:13.481Z,70.40
2018-01-06T07:50:39.942Z,70.70
2018-01-06T07:53:06.350Z,70.70
2018-01-06T07:55:32.756Z,70.40
2018-01-06T07:57:59.177Z,70.30
2018-01-06T08:00:26.301Z,69.20
2018-01-06T08:02:53.578Z,69.30
2018-01-06T08:05:20.755Z,69.30
2018-01-06T08:07:47.164Z,69.20
2018-01-06T08:10:13.632Z,69.20
2018-01-06T08:12:40.046Z,69.00
2018-01-06T08:15:06.461Z,68.80
2018-01-06T08:17:33.616Z,69.00
2018-01-06T08:20:00.052Z,69.00
2018-01-06T08:22:26.461Z,68.70
2018-01-06T08:24:52.935Z,67.70
2018-01-06T08:27:19.364Z,66.20
2018-01-06T08:29:46.366Z,65.40
2018-01-06T08:32:13.533Z,65.60
2018-01-06T08:34:40.672Z,65.90
2018-01-06T08:37:07.098Z,65.70
2018-01-06T08:39:33.500Z,65.50
2018-01-06T08:42:00.667Z,66.30
2018-01-06T08:44:27.100Z,66.30
2018-01-06T08:46:54.287Z,66.90
2018-01-06T08:49:21.432Z,66.80
2018-01-06T08:51:48.608Z,66.20
2018-01-06T08:54:15.821Z,67.10
2018-01-06T08:56:42.261Z,66.20
2018-01-06T08:59:09.425Z,66.50
2018-01-06T09:01:36.576Z,66.50
2018-01-06T09:04:03.034Z,66.50
2018-01-06T09:06:29.532Z,65.90
2018-01-06T09:08:56.048Z,65.60
2018-01-06T09:11:22.474Z,63.00
2018-01-06T09:13:48.885Z,62.70
2018-01-06T09:16:15.321Z,61.60
2018-01-06T09:18:41.797Z,60.30
2018-01-06T09:21:08.967Z,61.50
2018-01-06T09:23:35.381Z,61.50
2018-01-06T09:26:02.594Z,62.10
2018-01-06T09:28:29.792Z,61.80
2018-01-06T09:30:56.274Z,62.00
2018-01-06T09:33:22.721Z,62.60
2018-01-06T09:35:49.194Z,63.00
2018-01-06T09:38:16.309Z,63.30
2018-01-06T09:40:42.752Z,60.50
2018-01-06T09:43:09.962Z,62.00
2018-01-06T09:45:36.501Z,62.00
2018-01-06T09:48:02.948Z,61.30
2018-01-06T09:50:29.387Z,61.10
2018-01-06T09:52:55.850Z,60.20
2018-01-06T09:55:23.058Z,59.70
2018-01-06T09:57:49.486Z,59.60
2018-01-06T10:00:15.938Z,60.70
2018-01-06T10:02:43.152Z,59.80
2018-01-06T10:05:09.611Z,59.80
2018-01-06T10:07:36.043Z,58.30
2018-01-06T10:10:02.562Z,58.40
2018-01-06T10:12:28.990Z,59.40
2018-01-06T10:14:55.432Z,58.60
2018-01-06T10:17:21.841Z,57.10
2018-01-06T10:19:48.256Z,56.70
2018-01-06T10:22:14.730Z,53.00
2018-01-06T10:24:41.174Z,47.80
2018-01-06T10:27:07.565Z,43.70
2018-01-06T10:29:34.005Z,41.40
2018-01-06T10:32:00.394Z,35.50
2018-01-06T10:34:26.828Z,37.30
2018-01-06T10:36:53.273Z,36.80
2018-01-06T10:39:20.453Z,36.40
2018-01-06T10:41:46.874Z,36.50
2018-01-06T10:44:13.338Z,36.20
2018-01-06T10:46:39.865Z,35.00
2018-01-06T10:49:06.399Z,34.90
2018-01-06T10:51:32.849Z,33.00
2018-01-06T10:53:59.264Z,36.60
2018-01-06T10:56:25.700Z,39.00
2018-01-06T10:58:52.128Z,42.60
2018-01-06T11:01:24.811Z,43.40
2018-01-06T11:03:51.333Z,37.10
2018-01-06T11:06:17.911Z,34.10
2018-01-06T11:08:44.369Z,35.60
2018-01-06T11:11:11.543Z,31.30
2018-01-06T11:13:37.998Z,31.20
2018-01-06T11:16:04.447Z,31.60
2018-01-06T11:18:30.956Z,34.10
2018-01-06T11:20:57.382Z,33.60
2018-01-06T11:23:23.798Z,35.80
2018-01-06T11:25:50.977Z,31.60
2018-01-06T11:28:17.388Z,31.50
2018-01-06T11:30:43.855Z,31.30
2018-01-06T11:33:10.287Z,30.30
2018-01-06T11:35:36.908Z,34.50
2018-01-06T11:38:03.320Z,30.20
2018-01-06T11:40:29.715Z,29.60
2018-01-06T11:42:56.447Z,31.20
2018-01-06T11:45:22.897Z,33.60
2018-01-06T11:47:49.313Z,37.30
2018-01-06T11:50:15.760Z,38.80
2018-01-06T11:52:42.945Z,42.00
2018-01-06T11:55:09.411Z,41.80
2018-01-06T11:57:35.884Z,43.00
2018-01-06T12:00:02.421Z,43.70
2018-01-06T12:02:28.883Z,44.40
2018-01-06T12:04:55.300Z,44.80
2018-01-06T12:07:22.505Z,46.00
2018-01-06T12:09:49.657Z,47.30
2018-01-06T12:12:16.121Z,47.20
2018-01-06T12:14:42.596Z,45.60
2018-01-06T12:17:08.992Z,46.10
2018-01-06T12:19:35.401Z,46.60
2018-01-06T12:22:01.842Z,48.30
2018-01-06T12:24:28.333Z,48.90
2018-01-06T12:26:54.740Z,50.60
2018-01-06T12:29:21.216Z,50.40
2018-01-06T12:31:47.657Z,50.90
2018-01-06T12:34:14.090Z,51.40
2018-01-06T12:36:40.556Z,52.50
2018-01-06T12:39:07.705Z,52.70
2018-01-06T12:41:34.954Z,53.90
2018-01-06T12:44:01.394Z,53.70
2018-01-06T12:46:28.585Z,53.90
2018-01-06T12:48:55.003Z,53.90
2018-01-06T12:51:21.433Z,52.90
2018-01-06T12:53:47.862Z,53.40
2018-01-06T12:56:14.318Z,52.70
2018-01-06T12:58:40.813Z,54.00
2018-01-06T13:01:07.972Z,54.60
2018-01-06T13:03:35.144Z,54.00
2018-01-06T13:06:01.610Z,54.00
2018-01-06T13:08:28.023Z,54.90
2018-01-06T13:10:54.445Z,54.70
2018-01-06T13:13:20.871Z,55.10
2018-01-06T13:15:47.328Z,55.10
2018-01-06T13:18:13.775Z,55.00
2018-01-06T13:20:40.217Z,55.00
2018-01-06T13:23:06.648Z,55.70
2018-01-06T13:25:33.089Z,55.70
2018-01-06T13:28:00.283Z,56.10
2018-01-06T13:30:26.741Z,55.30
2018-01-06T13:32:53.200Z,55.70
2018-01-06T13:35:19.664Z,55.90
2018-01-06T13:37:47.169Z,56.20
2018-01-06T13:40:13.682Z,56.10
2018-01-06T13:42:40.105Z,56.10
2018-01-06T13:45:06.548Z,56.60
2018-01-06T13:47:32.998Z,55.90
2018-01-06T13:50:00.190Z,56.10
2018-01-06T13:52:27.396Z,55.40
2018-01-06T13:54:53.829Z,55.30
2018-01-06T13:57:20.314Z,55.60
2018-01-06T13:59:47.921Z,55.90
2018-01-06T14:02:14.407Z,56.00
2018-01-06T14:04:40.884Z,56.50
2018-01-06T14:07:07.312Z,56.10
2018-01-06T14:09:33.737Z,56.40
2018-01-06T14:12:00.217Z,56.40
2018-01-06T14:14:26.681Z,57.10
2018-01-06T14:16:54.058Z,56.90
2018-01-06T14:19:20.508Z,57.70
2018-01-06T14:21:46.941Z,57.30
2018-01-06T14:24:13.375Z,58.00
2018-01-06T14:26:39.795Z,58.20
2018-01-06T14:29:06.235Z,57.90
2018-01-06T14:31:32.746Z,57.90
2018-01-06T14:33:59.212Z,58.20
2018-01-06T14:36:25.736Z,58.30
2018-01-06T14:38:52.169Z,58.40
2018-01-06T14:41:18.625Z,58.60
2018-01-06T14:43:45.098Z,58.70
2018-01-06T14:46:12.280Z,58.90
2018-01-06T14:48:38.696Z,58.80
2018-01-06T14:51:05.198Z,59.00
2018-01-06T14:53:31.601Z,58.90
2018-01-06T14:55:58.097Z,59.10
2018-01-06T14:58:24.557Z,59.50
2018-01-06T15:00:51.019Z,60.40
2018-01-06T15:03:17.682Z,59.60
2018-01-06T15:05:44.102Z,59.60
2018-01-06T15:08:10.537Z,59.60
2018-01-06T15:10:37.726Z,59.90
2018-01-06T15:13:04.237Z,59.90
2018-01-06T15:15:31.410Z,60.20
2018-01-06T15:17:57.974Z,60.10
2018-01-06T15:20:24.429Z,60.30
2018-01-06T15:22:50.835Z,60.30
2018-01-06T15:25:17.325Z,60.40
2018-01-06T15:27:44.547Z,61.00
2018-01-06T15:30:10.974Z,60.90
2018-01-06T15:32:37.385Z,61.40
2018-01-06T15:35:03.831Z,61.50
2018-01-06T15:37:30.281Z,61.80
2018-01-06T15:39:56.716Z,61.60
2018-01-06T15:42:23.917Z,62.30
2018-01-06T15:44:50.405Z,62.30
2018-01-06T15:47:16.833Z,62.10
2018-01-06T15:49:43.304Z,62.50
2018-01-06T15:52:09.717Z,62.00
2018-01-06T15:54:36.944Z,61.80
2018-01-06T15:57:03.520Z,61.70
2018-01-06T15:59:29.944Z,62.50
2018-01-06T16:01:57.152Z,63.60
2018-01-06T16:04:23.595Z,63.50
2018-01-06T16:06:50.008Z,63.50
2018-01-06T16:09:16.462Z,63.40
2018-01-06T16:11:43.647Z,63.50
2018-01-06T16:14:10.843Z,63.40
2018-01-06T16:16:37.273Z,63.40
2018-01-06T16:19:03.713Z,62.40
2018-01-06T16:21:30.157Z,63.20
2018-01-06T16:23:56.593Z,64.00
2018-01-06T16:26:23.052Z,64.10
2018-01-06T16:28:50.201Z,64.70
2018-01-06T16:31:16.609Z,64.60
2018-01-06T16:33:43.111Z,64.90
2018-01-06T16:36:09.547Z,65.30
2018-01-06T16:38:36.101Z,65.60
2018-01-06T16:41:02.583Z,65.60
2018-01-06T16:43:29.037Z,66.20
2018-01-06T16:45:55.741Z,66.40
2018-01-06T16:48:22.926Z,66.40
2018-01-06T16:50:49.375Z,66.40
2018-01-06T16:53:15.821Z,67.10
2018-01-06T16:55:42.241Z,67.00
2018-01-06T16:58:08.658Z,67.00
2018-01-06T17:00:35.144Z,67.10
2018-01-06T17:03:02.368Z,67.40
2018-01-06T17:05:28.793Z,67.40
2018-01-06T17:07:55.236Z,67.70
2018-01-06T17:10:21.682Z,67.90
2018-01-06T17:12:48.086Z,68.00
2018-01-06T17:15:14.508Z,68.20
2018-01-06T17:17:41.063Z,68.10
2018-01-06T17:20:07.526Z,68.30
2018-01-06T17:22:33.937Z,68.40
2018-01-06T17:25:00.388Z,68.70
2018-01-06T17:27:26.923Z,68.70
2018-01-06T17:29:53.365Z,68.80
2018-01-06T17:32:19.786Z,68.30
2018-01-06T17:34:47.011Z,68.40
2018-01-06T17:37:13.471Z,68.30
2018-01-06T17:39:39.948Z,68.50
2018-01-06T17:42:06.408Z,67.80
2018-01-06T17:44:32.824Z,68.20
2018-01-06T17:46:59.320Z,68.10
2018-01-06T17:49:25.774Z,68.40
2018-01-06T17:51:52.953Z,68.50
2018-01-06T17:54:19.368Z,68.50
2018-01-06T17:56:45.808Z,68.50
2018-01-06T17:59:12.244Z,68.60
2018-01-06T18:01:38.708Z,68.70
2018-01-06T18:04:05.386Z,68.50
2018-01-06T18:06:31.606Z,68.30
2018-01-06T18:08:58.297Z,68.20
2018-01-06T18:11:25.460Z,68.80
2018-01-06T18:13:51.899Z,68.70
2018-01-06T18:16:18.345Z,68.90
2018-01-06T18:18:44.882Z,69.00
2018-01-06T18:21:12.116Z,69.00
2018-01-06T18:23:38.543Z,68.90
2018-01-06T18:26:04.969Z,68.70
2018-01-06T18:28:31.430Z,68.80
2018-01-06T18:30:57.865Z,68.30
2018-01-06T18:33:25.078Z,68.70
2018-01-06T18:35:51.534Z,68.70
2018-01-06T18:38:17.989Z,68.50
2018-01-06T18:40:44.450Z,68.80
2018-01-06T18:43:10.926Z,69.10
2018-01-06T18:45:37.352Z,69.60
2018-01-06T18:48:03.821Z,70.10
2018-01-06T18:50:31.030Z,69.90
2018-01-06T18:52:57.576Z,69.80
2018-01-06T18:55:24.804Z,69.60
2018-01-06T18:57:51.211Z,68.80
2018-01-06T19:00:18.389Z,68.50
2018-01-06T19:02:44.829Z,68.50
2018-01-06T19:05:11.273Z,68.20
2018-01-06T19:07:37.767Z,68.20
2018-01-06T19:10:04.174Z,68.10
2018-01-06T19:12:30.657Z,68.40
2018-01-06T19:14:57.094Z,68.40
2018-01-06T19:17:23.652Z,68.10
2018-01-06T19:19:50.086Z,67.60
2018-01-06T19:22:16.515Z,68.10
2018-01-06T19:24:42.906Z,68.40
2018-01-06T19:27:09.408Z,68.60
2018-01-06T19:29:35.841Z,69.30
2018-01-06T19:32:02.282Z,68.40
2018-01-06T19:34:29.462Z,68.80
2018-01-06T19:36:55.900Z,68.80
2018-01-06T19:39:22.326Z,68.80
2018-01-06T19:41:48.774Z,69.20
2018-01-06T19:44:15.176Z,69.30
2018-01-06T19:46:42.385Z,69.30
2018-01-06T19:49:08.940Z,69.30
2018-01-06T19:51:35.329Z,69.50
2018-01-06T19:54:01.786Z,69.60
2018-01-06T19:56:28.227Z,69.60
2018-01-06T19:58:54.938Z,69.20
2018-01-06T20:01:21.362Z,68.90
2018-01-06T20:03:47.799Z,69.30
2018-01-06T20:06:14.288Z,69.30
2018-01-06T20:08:41.493Z,69.30
2018-01-06T20:11:07.922Z,69.20
2018-01-06T20:13:34.364Z,69.10
2018-01-06T20:16:00.820Z,69.30
2018-01-06T20:18:27.267Z,69.50
2018-01-06T20:20:54.464Z,70.40
2018-01-06T20:23:20.918Z,70.30
2018-01-06T20:25:47.443Z,70.40
2018-01-06T20:28:13.881Z,70.30
2018-01-06T20:30:40.352Z,70.30
2018-01-06T20:33:06.791Z,70.90
2018-01-06T20:35:33.993Z,71.50
2018-01-06T20:38:00.444Z,71.40
2018-01-06T20:40:26.888Z,71.60
2018-01-06T20:42:53.369Z,71.80
2018-01-06T20:45:19.939Z,72.10
2018-01-06T20:47:46.410Z,72.10
2018-01-06T20:50:12.901Z,71.90
2018-01-06T20:52:39.394Z,71.70
2018-01-06T20:55:05.861Z,71.90
2018-01-06T20:57:32.493Z,72.00
2018-01-06T20:59:58.918Z,71.80
2018-01-06T21:02:25.388Z,71.60
2018-01-06T21:04:52.814Z,70.90
2018-01-06T21:07:19.223Z,70.80
2018-01-06T21:09:45.662Z,70.90
2018-01-06T21:12:12.142Z,71.30
2018-01-06T21:14:38.545Z,70.60
2018-01-06T21:17:05.025Z,70.60
2018-01-06T21:19:31.500Z,70.90
2018-01-06T21:21:57.934Z,70.40
2018-01-06T21:24:24.465Z,70.30
2018-01-06T21:26:50.975Z,70.10
2018-01-06T21:29:18.205Z,70.00
2018-01-06T21:31:44.641Z,70.00
2018-01-06T21:34:12.141Z,70.10
2018-01-06T21:36:38.614Z,70.10
2018-01-06T21:39:05.084Z,70.50
2018-01-06T21:41:32.266Z,70.60
2018-01-06T21:43:58.714Z,70.60
2018-01-06T21:46:25.165Z,70.70
2018-01-06T21:48:51.637Z,71.00
2018-01-06T21:51:18.077Z,71.40
2018-01-06T21:53:45.234Z,72.00
2018-01-06T21:56:11.904Z,72.00
2018-01-06T21:58:38.324Z,73.00
2018-01-06T22:01:04.791Z,73.20
2018-01-06T22:03:31.240Z,72.60
2018-01-06T22:05:57.802Z,72.50
2018-01-06T22:08:24.277Z,72.30
2018-01-06T22:10:50.693Z,72.70
2018-01-06T22:13:17.169Z,73.00
2018-01-06T22:15:43.741Z,72.80
2018-01-06T22:18:10.207Z,72.90
2018-01-06T22:20:36.736Z,72.70
2018-01-06T22:23:03.234Z,72.40
2018-01-06T22:25:30.437Z,72.20
2018-01-06T22:27:56.868Z,72.20
2018-01-06T22:30:23.351Z,72.10
2018-01-06T22:32:49.819Z,71.80
2018-01-06T22:35:16.253Z,72.20
2018-01-06T22:37:42.713Z,72.00
2018-01-06T22:40:09.209Z,72.10
2018-01-06T22:42:35.650Z,72.20
2018-01-06T22:45:02.643Z,72.10
2018-01-06T22:47:29.811Z,72.20
2018-01-06T22:49:56.266Z,72.30
2018-01-06T22:52:22.702Z,72.20
2018-01-06T22:54:49.459Z,72.10
2018-01-06T22:57:15.894Z,71.90
2018-01-06T22:59:42.321Z,71.50
2018-01-06T23:02:08.773Z,72.10
2018-01-06T23:04:35.220Z,72.60
2018-01-06T23:07:02.520Z,73.00
2018-01-06T23:09:28.981Z,73.00
2018-01-06T23:11:55.466Z,73.30
2018-01-06T23:14:22.689Z,73.30
2018-01-06T23:16:49.095Z,73.20
2018-01-06T23:19:15.522Z,73.30
2018-01-06T23:21:41.985Z,73.30
2018-01-06T23:24:09.237Z,73.40
2018-01-06T23:26:36.444Z,73.60
2018-01-06T23:29:02.912Z,73.70
2018-01-06T23:31:29.340Z,74.30
2018-01-06T23:33:55.778Z,73.70
2018-01-06T23:36:22.216Z,73.90
2018-01-06T23:38:48.657Z,74.20
2018-01-06T23:41:15.116Z,74.40
2018-01-06T23:43:42.307Z,74.60
2018-01-06T23:46:08.798Z,74.60
2018-01-06T23:48:35.296Z,74.60
2018-01-06T23:51:01.772Z,74.30
2018-01-06T23:53:28.222Z,74.30
2018-01-06T23:55:54.665Z,74.20
2018-01-06T23:58:21.174Z,74.20
